sensor_id;sensor_type;location;lat;lon;timestamp;temperature;humidity
6375;DHT22;35400;45.472;-122.822;2023-03-01T00:00:10;4.10;99.90
6375;DHT22;35400;45.472;-122.822;2023-03-01T00:02:40;4.10;99.90
6375;DHT22;35400;45.472;-122.822;2023-03-01T00:05:07;4.10;99.90
6375;DHT22;35400;45.472;-122.822;2023-03-01T00:07:34;4.00;99.90
6375;DHT22;35400;45.472;-122.822;2023-03-01T00:10:01;3.90;99.90
6375;DHT22;35400;45.472;-122.822;2023-03-01T00:12:28;3.90;99.90
6375;DHT22;35400;45.472;-122.822;2023-03-01T00:14:55;3.80;99.90
6375;DHT22;35400;45.472;-122.822;2023-03-01T00:17:22;3.80;99.90
6375;DHT22;35400;45.472;-122.822;2023-03-01T00:19:48;3.80;99.90
6375;DHT22;35400;45.472;-122.822;2023-03-01T00:22:15;3.70;99.90
6375;DHT22;35400;45.472;-122.822;2023-03-01T00:24:42;3.70;99.90
6375;DHT22;35400;45.472;-122.822;2023-03-01T00:27:09;3.70;99.90
6375;DHT22;35400;45.472;-122.822;2023-03-01T00:29:36;3.60;99.90
6375;DHT22;35400;45.472;-122.822;2023-03-01T00:32:03;3.60;99.90
6375;DHT22;35400;45.472;-122.822;2023-03-01T00:34:30;3.60;99.90
6375;DHT22;35400;45.472;-122.822;2023-03-01T00:36:57;3.60;99.90
6375;DHT22;35400;45.472;-122.822;2023-03-01T00:39:32;3.60;99.90
6375;DHT22;35400;45.472;-122.822;2023-03-01T00:41:59;3.60;99.90
6375;DHT22;35400;45.472;-122.822;2023-03-01T00:44:26;3.60;99.90
6375;DHT22;35400;45.472;-122.822;2023-03-01T00:46:54;3.60;99.90
6375;DHT22;35400;45.472;-122.822;2023-03-01T00:49:21;3.60;99.90
6375;DHT22;35400;45.472;-122.822;2023-03-01T00:51:50;3.50;99.90
6375;DHT22;35400;45.472;-122.822;2023-03-01T00:54:17;3.50;99.90
6375;DHT22;35400;45.472;-122.822;2023-03-01T00:56:43;3.50;99.90
6375;DHT22;35400;45.472;-122.822;2023-03-01T00:59:10;3.50;99.90
6375;DHT22;35400;45.472;-122.822;2023-03-01T01:01:39;3.50;99.90
6375;DHT22;35400;45.472;-122.822;2023-03-01T01:04:08;3.50;99.90
6375;DHT22;35400;45.472;-122.822;2023-03-01T01:06:41;3.50;99.90
6375;DHT22;35400;45.472;-122.822;2023-03-01T01:09:11;3.40;99.90
6375;DHT22;35400;45.472;-122.822;2023-03-01T01:11:45;3.40;99.90
6375;DHT22;35400;45.472;-122.822;2023-03-01T01:14:13;3.40;99.90
6375;DHT22;35400;45.472;-122.822;2023-03-01T01:16:40;3.40;99.90
6375;DHT22;35400;45.472;-122.822;2023-03-01T01:19:08;3.40;99.90
6375;DHT22;35400;45.472;-122.822;2023-03-01T01:21:35;3.40;99.90
6375;DHT22;35400;45.472;-122.822;2023-03-01T01:24:04;3.40;99.90
6375;DHT22;35400;45.472;-122.822;2023-03-01T01:26:33;3.40;99.90
6375;DHT22;35400;45.472;-122.822;2023-03-01T01:29:01;3.40;99.90
6375;DHT22;35400;45.472;-122.822;2023-03-01T01:31:29;3.30;99.90
6375;DHT22;35400;45.472;-122.822;2023-03-01T01:33:58;3.30;99.90
6375;DHT22;35400;45.472;-122.822;2023-03-01T01:36:25;3.30;99.90
6375;DHT22;35400;45.472;-122.822;2023-03-01T01:38:52;3.20;99.90
6375;DHT22;35400;45.472;-122.822;2023-03-01T01:41:20;3.20;99.90
6375;DHT22;35400;45.472;-122.822;2023-03-01T01:43:49;3.20;99.90
6375;DHT22;35400;45.472;-122.822;2023-03-01T01:46:41;3.20;99.90
6375;DHT22;35400;45.472;-122.822;2023-03-01T01:52:11;3.20;99.90
6375;DHT22;35400;45.472;-122.822;2023-03-01T01:54:48;3.10;99.90
6375;DHT22;35400;45.472;-122.822;2023-03-01T01:57:23;3.10;99.90
6375;DHT22;35400;45.472;-122.822;2023-03-01T01:59:55;3.00;99.90
6375;DHT22;35400;45.472;-122.822;2023-03-01T02:02:23;3.00;99.90
6375;DHT22;35400;45.472;-122.822;2023-03-01T02:04:54;3.00;99.90
6375;DHT22;35400;45.472;-122.822;2023-03-01T02:07:26;2.90;99.90
6375;DHT22;35400;45.472;-122.822;2023-03-01T02:09:53;2.90;99.90
6375;DHT22;35400;45.472;-122.822;2023-03-01T02:12:24;2.90;99.90
6375;DHT22;35400;45.472;-122.822;2023-03-01T02:14:51;2.90;99.90
6375;DHT22;35400;45.472;-122.822;2023-03-01T02:17:18;2.80;99.90
6375;DHT22;35400;45.472;-122.822;2023-03-01T02:20:03;2.80;99.90
6375;DHT22;35400;45.472;-122.822;2023-03-01T02:22:36;2.80;99.90
6375;DHT22;35400;45.472;-122.822;2023-03-01T02:28:10;2.80;99.90
6375;DHT22;35400;45.472;-122.822;2023-03-01T02:30:40;2.80;99.90
6375;DHT22;35400;45.472;-122.822;2023-03-01T02:33:27;2.70;99.90
6375;DHT22;35400;45.472;-122.822;2023-03-01T02:35:55;2.70;99.90
6375;DHT22;35400;45.472;-122.822;2023-03-01T02:38:23;2.70;99.90
6375;DHT22;35400;45.472;-122.822;2023-03-01T02:40:51;2.70;99.90
6375;DHT22;35400;45.472;-122.822;2023-03-01T02:43:20;2.70;99.90
6375;DHT22;35400;45.472;-122.822;2023-03-01T02:45:50;2.70;99.90
6375;DHT22;35400;45.472;-122.822;2023-03-01T02:48:22;2.70;99.90
6375;DHT22;35400;45.472;-122.822;2023-03-01T02:51:07;2.70;99.90
6375;DHT22;35400;45.472;-122.822;2023-03-01T02:56:10;2.60;99.90
6375;DHT22;35400;45.472;-122.822;2023-03-01T02:58:44;2.60;99.90
6375;DHT22;35400;45.472;-122.822;2023-03-01T03:01:19;2.60;99.90
6375;DHT22;35400;45.472;-122.822;2023-03-01T03:03:46;2.60;99.90
6375;DHT22;35400;45.472;-122.822;2023-03-01T03:06:13;2.60;99.90
6375;DHT22;35400;45.472;-122.822;2023-03-01T03:08:41;2.60;99.90
6375;DHT22;35400;45.472;-122.822;2023-03-01T03:11:08;2.60;99.90
6375;DHT22;35400;45.472;-122.822;2023-03-01T03:13:35;2.60;99.90
6375;DHT22;35400;45.472;-122.822;2023-03-01T03:16:03;2.50;99.90
6375;DHT22;35400;45.472;-122.822;2023-03-01T03:18:31;2.50;99.90
6375;DHT22;35400;45.472;-122.822;2023-03-01T03:20:58;2.50;99.90
6375;DHT22;35400;45.472;-122.822;2023-03-01T03:23:25;2.50;99.90
6375;DHT22;35400;45.472;-122.822;2023-03-01T03:25:52;2.50;99.90
6375;DHT22;35400;45.472;-122.822;2023-03-01T03:28:18;2.50;99.90
6375;DHT22;35400;45.472;-122.822;2023-03-01T03:30:46;2.50;99.90
6375;DHT22;35400;45.472;-122.822;2023-03-01T03:33:13;2.50;99.90
6375;DHT22;35400;45.472;-122.822;2023-03-01T03:35:48;2.40;99.90
6375;DHT22;35400;45.472;-122.822;2023-03-01T03:38:17;2.40;99.90
6375;DHT22;35400;45.472;-122.822;2023-03-01T03:40:46;2.40;99.90
6375;DHT22;35400;45.472;-122.822;2023-03-01T03:43:16;2.40;99.90
6375;DHT22;35400;45.472;-122.822;2023-03-01T03:45:48;2.40;99.90
6375;DHT22;35400;45.472;-122.822;2023-03-01T03:48:16;2.40;99.90
6375;DHT22;35400;45.472;-122.822;2023-03-01T03:50:52;2.40;99.90
6375;DHT22;35400;45.472;-122.822;2023-03-01T03:53:20;2.40;99.90
6375;DHT22;35400;45.472;-122.822;2023-03-01T03:55:47;2.30;99.90
6375;DHT22;35400;45.472;-122.822;2023-03-01T03:58:20;2.40;99.90
6375;DHT22;35400;45.472;-122.822;2023-03-01T04:00:50;2.30;99.90
6375;DHT22;35400;45.472;-122.822;2023-03-01T04:03:19;2.30;99.90
6375;DHT22;35400;45.472;-122.822;2023-03-01T04:05:47;2.30;99.90
6375;DHT22;35400;45.472;-122.822;2023-03-01T04:08:14;2.30;99.90
6375;DHT22;35400;45.472;-122.822;2023-03-01T04:10:44;2.30;99.90
6375;DHT22;35400;45.472;-122.822;2023-03-01T04:13:14;2.30;99.90
6375;DHT22;35400;45.472;-122.822;2023-03-01T04:15:41;2.30;99.90
6375;DHT22;35400;45.472;-122.822;2023-03-01T04:18:13;2.30;99.90
6375;DHT22;35400;45.472;-122.822;2023-03-01T04:20:40;2.30;99.90
6375;DHT22;35400;45.472;-122.822;2023-03-01T04:23:13;2.30;99.90
6375;DHT22;35400;45.472;-122.822;2023-03-01T04:25:51;2.30;99.90
6375;DHT22;35400;45.472;-122.822;2023-03-01T04:28:33;2.30;99.90
6375;DHT22;35400;45.472;-122.822;2023-03-01T04:31:07;2.30;99.90
6375;DHT22;35400;45.472;-122.822;2023-03-01T04:33:43;2.30;99.90
6375;DHT22;35400;45.472;-122.822;2023-03-01T04:36:11;2.30;99.90
6375;DHT22;35400;45.472;-122.822;2023-03-01T04:38:39;2.20;99.90
6375;DHT22;35400;45.472;-122.822;2023-03-01T04:41:09;2.20;99.90
6375;DHT22;35400;45.472;-122.822;2023-03-01T04:43:37;2.20;99.90
6375;DHT22;35400;45.472;-122.822;2023-03-01T04:46:09;2.10;99.90
6375;DHT22;35400;45.472;-122.822;2023-03-01T04:48:40;2.10;99.90
6375;DHT22;35400;45.472;-122.822;2023-03-01T04:51:08;2.10;99.90
6375;DHT22;35400;45.472;-122.822;2023-03-01T04:53:35;2.10;99.90
6375;DHT22;35400;45.472;-122.822;2023-03-01T04:56:06;2.10;99.90
6375;DHT22;35400;45.472;-122.822;2023-03-01T04:58:33;2.10;99.90
6375;DHT22;35400;45.472;-122.822;2023-03-01T05:00:59;2.00;99.90
6375;DHT22;35400;45.472;-122.822;2023-03-01T05:03:27;2.00;99.90
6375;DHT22;35400;45.472;-122.822;2023-03-01T05:05:54;2.00;99.90
6375;DHT22;35400;45.472;-122.822;2023-03-01T05:08:25;2.00;99.90
6375;DHT22;35400;45.472;-122.822;2023-03-01T05:10:53;1.90;99.90
6375;DHT22;35400;45.472;-122.822;2023-03-01T05:13:21;1.90;99.90
6375;DHT22;35400;45.472;-122.822;2023-03-01T05:15:59;1.80;99.90
6375;DHT22;35400;45.472;-122.822;2023-03-01T05:18:27;1.80;99.90
6375;DHT22;35400;45.472;-122.822;2023-03-01T05:21:11;1.70;99.90
6375;DHT22;35400;45.472;-122.822;2023-03-01T05:23:38;1.70;99.90
6375;DHT22;35400;45.472;-122.822;2023-03-01T05:26:06;1.60;99.90
6375;DHT22;35400;45.472;-122.822;2023-03-01T05:28:33;1.60;99.90
6375;DHT22;35400;45.472;-122.822;2023-03-01T05:31:00;1.60;99.90
6375;DHT22;35400;45.472;-122.822;2023-03-01T05:33:27;1.50;99.90
6375;DHT22;35400;45.472;-122.822;2023-03-01T05:35:54;1.50;99.90
6375;DHT22;35400;45.472;-122.822;2023-03-01T05:38:25;1.40;99.90
6375;DHT22;35400;45.472;-122.822;2023-03-01T05:40:52;1.40;99.90
6375;DHT22;35400;45.472;-122.822;2023-03-01T05:43:20;1.40;99.90
6375;DHT22;35400;45.472;-122.822;2023-03-01T05:45:46;1.30;99.90
6375;DHT22;35400;45.472;-122.822;2023-03-01T05:48:14;1.30;99.90
6375;DHT22;35400;45.472;-122.822;2023-03-01T05:50:43;1.20;99.90
6375;DHT22;35400;45.472;-122.822;2023-03-01T05:53:15;1.20;99.90
6375;DHT22;35400;45.472;-122.822;2023-03-01T05:55:43;1.10;99.90
6375;DHT22;35400;45.472;-122.822;2023-03-01T05:58:15;1.10;99.90
6375;DHT22;35400;45.472;-122.822;2023-03-01T06:00:43;1.00;99.90
6375;DHT22;35400;45.472;-122.822;2023-03-01T06:03:12;1.00;99.90
6375;DHT22;35400;45.472;-122.822;2023-03-01T06:05:40;1.00;99.90
6375;DHT22;35400;45.472;-122.822;2023-03-01T06:08:08;0.90;99.90
6375;DHT22;35400;45.472;-122.822;2023-03-01T06:10:36;0.90;99.90
6375;DHT22;35400;45.472;-122.822;2023-03-01T06:13:03;0.90;99.90
6375;DHT22;35400;45.472;-122.822;2023-03-01T06:15:30;0.80;99.90
6375;DHT22;35400;45.472;-122.822;2023-03-01T06:17:56;0.80;99.90
6375;DHT22;35400;45.472;-122.822;2023-03-01T06:20:25;0.70;99.90
6375;DHT22;35400;45.472;-122.822;2023-03-01T06:22:53;0.70;99.90
6375;DHT22;35400;45.472;-122.822;2023-03-01T06:25:23;0.60;99.90
6375;DHT22;35400;45.472;-122.822;2023-03-01T06:27:50;0.60;99.90
6375;DHT22;35400;45.472;-122.822;2023-03-01T06:30:20;0.50;99.90
6375;DHT22;35400;45.472;-122.822;2023-03-01T06:32:47;0.50;99.90
6375;DHT22;35400;45.472;-122.822;2023-03-01T06:35:17;0.50;99.90
6375;DHT22;35400;45.472;-122.822;2023-03-01T06:37:45;0.40;99.90
6375;DHT22;35400;45.472;-122.822;2023-03-01T06:40:12;0.40;99.90
6375;DHT22;35400;45.472;-122.822;2023-03-01T06:42:41;0.30;99.90
6375;DHT22;35400;45.472;-122.822;2023-03-01T06:45:09;0.30;99.90
6375;DHT22;35400;45.472;-122.822;2023-03-01T06:47:36;0.30;99.90
6375;DHT22;35400;45.472;-122.822;2023-03-01T06:50:04;0.20;99.90
6375;DHT22;35400;45.472;-122.822;2023-03-01T06:52:31;0.20;99.90
6375;DHT22;35400;45.472;-122.822;2023-03-01T06:54:57;0.20;99.90
6375;DHT22;35400;45.472;-122.822;2023-03-01T06:57:25;0.20;99.90
6375;DHT22;35400;45.472;-122.822;2023-03-01T06:59:52;0.10;99.90
6375;DHT22;35400;45.472;-122.822;2023-03-01T07:02:19;0.10;99.90
6375;DHT22;35400;45.472;-122.822;2023-03-01T07:04:45;0.10;99.90
6375;DHT22;35400;45.472;-122.822;2023-03-01T07:07:13;0.10;99.90
6375;DHT22;35400;45.472;-122.822;2023-03-01T07:09:39;0.00;99.90
6375;DHT22;35400;45.472;-122.822;2023-03-01T07:12:06;0.00;99.90
6375;DHT22;35400;45.472;-122.822;2023-03-01T07:14:34;0.00;99.90
6375;DHT22;35400;45.472;-122.822;2023-03-01T07:17:01;0.00;99.90
6375;DHT22;35400;45.472;-122.822;2023-03-01T07:19:28;-0.10;99.90
6375;DHT22;35400;45.472;-122.822;2023-03-01T07:21:54;-0.10;99.90
6375;DHT22;35400;45.472;-122.822;2023-03-01T07:24:22;-0.10;99.90
6375;DHT22;35400;45.472;-122.822;2023-03-01T07:26:50;-0.10;99.90
6375;DHT22;35400;45.472;-122.822;2023-03-01T07:29:17;-0.10;99.90
6375;DHT22;35400;45.472;-122.822;2023-03-01T07:31:44;-0.20;99.90
6375;DHT22;35400;45.472;-122.822;2023-03-01T07:34:11;-0.20;99.90
6375;DHT22;35400;45.472;-122.822;2023-03-01T07:36:38;-0.20;99.90
6375;DHT22;35400;45.472;-122.822;2023-03-01T07:39:05;-0.20;99.90
6375;DHT22;35400;45.472;-122.822;2023-03-01T07:41:32;-0.20;99.90
6375;DHT22;35400;45.472;-122.822;2023-03-01T07:43:59;-0.20;99.90
6375;DHT22;35400;45.472;-122.822;2023-03-01T07:46:26;-0.20;99.90
6375;DHT22;35400;45.472;-122.822;2023-03-01T07:48:53;-0.20;99.90
6375;DHT22;35400;45.472;-122.822;2023-03-01T07:51:20;-0.20;99.90
6375;DHT22;35400;45.472;-122.822;2023-03-01T07:53:47;-0.20;99.90
6375;DHT22;35400;45.472;-122.822;2023-03-01T07:56:15;-0.20;99.90
6375;DHT22;35400;45.472;-122.822;2023-03-01T07:58:46;-0.20;99.90
6375;DHT22;35400;45.472;-122.822;2023-03-01T08:01:16;-0.20;99.90
6375;DHT22;35400;45.472;-122.822;2023-03-01T08:03:43;-0.20;99.90
6375;DHT22;35400;45.472;-122.822;2023-03-01T08:06:12;-0.20;99.90
6375;DHT22;35400;45.472;-122.822;2023-03-01T08:08:40;-0.20;99.90
6375;DHT22;35400;45.472;-122.822;2023-03-01T08:11:09;-0.20;99.90
6375;DHT22;35400;45.472;-122.822;2023-03-01T08:13:36;-0.20;99.90
6375;DHT22;35400;45.472;-122.822;2023-03-01T08:16:08;-0.20;99.90
6375;DHT22;35400;45.472;-122.822;2023-03-01T08:18:36;-0.20;99.90
6375;DHT22;35400;45.472;-122.822;2023-03-01T08:21:08;-0.20;99.90
6375;DHT22;35400;45.472;-122.822;2023-03-01T08:23:35;-0.20;99.90
6375;DHT22;35400;45.472;-122.822;2023-03-01T08:26:20;-0.20;99.90
6375;DHT22;35400;45.472;-122.822;2023-03-01T08:28:48;-0.20;99.90
6375;DHT22;35400;45.472;-122.822;2023-03-01T08:31:18;-0.30;99.90
6375;DHT22;35400;45.472;-122.822;2023-03-01T08:33:46;-0.30;99.90
6375;DHT22;35400;45.472;-122.822;2023-03-01T08:36:23;-0.30;99.90
6375;DHT22;35400;45.472;-122.822;2023-03-01T08:38:51;-0.30;99.90
6375;DHT22;35400;45.472;-122.822;2023-03-01T08:41:17;-0.40;99.90
6375;DHT22;35400;45.472;-122.822;2023-03-01T08:43:44;-0.40;99.90
6375;DHT22;35400;45.472;-122.822;2023-03-01T08:46:11;-0.50;99.90
6375;DHT22;35400;45.472;-122.822;2023-03-01T08:48:39;-0.50;99.90
6375;DHT22;35400;45.472;-122.822;2023-03-01T08:51:15;-0.50;99.90
6375;DHT22;35400;45.472;-122.822;2023-03-01T08:53:43;-0.50;99.90
6375;DHT22;35400;45.472;-122.822;2023-03-01T08:56:10;-0.60;99.90
6375;DHT22;35400;45.472;-122.822;2023-03-01T08:58:37;-0.60;99.90
6375;DHT22;35400;45.472;-122.822;2023-03-01T09:01:13;-0.60;99.90
6375;DHT22;35400;45.472;-122.822;2023-03-01T09:03:41;-0.60;99.90
6375;DHT22;35400;45.472;-122.822;2023-03-01T09:06:09;-0.70;99.90
6375;DHT22;35400;45.472;-122.822;2023-03-01T09:08:41;-0.70;99.90
6375;DHT22;35400;45.472;-122.822;2023-03-01T09:11:11;-0.70;99.90
6375;DHT22;35400;45.472;-122.822;2023-03-01T09:13:38;-0.80;99.90
6375;DHT22;35400;45.472;-122.822;2023-03-01T09:16:07;-0.80;99.90
6375;DHT22;35400;45.472;-122.822;2023-03-01T09:18:34;-0.80;99.90
6375;DHT22;35400;45.472;-122.822;2023-03-01T09:21:03;-0.80;99.90
6375;DHT22;35400;45.472;-122.822;2023-03-01T09:23:37;-0.90;99.90
6375;DHT22;35400;45.472;-122.822;2023-03-01T09:26:10;-0.90;99.90
6375;DHT22;35400;45.472;-122.822;2023-03-01T09:28:37;-0.90;99.90
6375;DHT22;35400;45.472;-122.822;2023-03-01T09:31:04;-0.90;99.90
6375;DHT22;35400;45.472;-122.822;2023-03-01T09:33:32;-1.00;99.90
6375;DHT22;35400;45.472;-122.822;2023-03-01T09:36:01;-0.90;99.90
6375;DHT22;35400;45.472;-122.822;2023-03-01T09:38:29;-1.00;99.90
6375;DHT22;35400;45.472;-122.822;2023-03-01T09:40:56;-1.00;99.90
6375;DHT22;35400;45.472;-122.822;2023-03-01T09:43:48;-1.00;99.90
6375;DHT22;35400;45.472;-122.822;2023-03-01T09:46:22;-1.00;99.90
6375;DHT22;35400;45.472;-122.822;2023-03-01T09:49:03;-1.00;99.90
6375;DHT22;35400;45.472;-122.822;2023-03-01T09:51:33;-1.00;99.90
6375;DHT22;35400;45.472;-122.822;2023-03-01T09:54:05;-1.00;99.90
6375;DHT22;35400;45.472;-122.822;2023-03-01T09:56:46;-1.00;99.90
6375;DHT22;35400;45.472;-122.822;2023-03-01T10:07:45;-1.00;99.90
6375;DHT22;35400;45.472;-122.822;2023-03-01T10:10:31;-1.00;99.90
6375;DHT22;35400;45.472;-122.822;2023-03-01T10:13:04;-1.10;99.90
6375;DHT22;35400;45.472;-122.822;2023-03-01T10:15:40;-1.10;99.90
6375;DHT22;35400;45.472;-122.822;2023-03-01T10:18:30;-1.10;99.90
6375;DHT22;35400;45.472;-122.822;2023-03-01T10:21:00;-1.10;99.90
6375;DHT22;35400;45.472;-122.822;2023-03-01T10:23:29;-1.20;99.90
6375;DHT22;35400;45.472;-122.822;2023-03-01T10:26:19;-1.20;99.90
6375;DHT22;35400;45.472;-122.822;2023-03-01T10:29:02;-1.20;99.90
6375;DHT22;35400;45.472;-122.822;2023-03-01T10:31:39;-1.20;99.90
6375;DHT22;35400;45.472;-122.822;2023-03-01T10:37:09;-1.30;99.90
6375;DHT22;35400;45.472;-122.822;2023-03-01T10:39:36;-1.30;99.90
6375;DHT22;35400;45.472;-122.822;2023-03-01T10:42:27;-1.30;99.90
6375;DHT22;35400;45.472;-122.822;2023-03-01T10:44:55;-1.40;99.90
6375;DHT22;35400;45.472;-122.822;2023-03-01T10:47:24;-1.40;99.90
6375;DHT22;35400;45.472;-122.822;2023-03-01T10:52:27;-1.50;99.90
6375;DHT22;35400;45.472;-122.822;2023-03-01T10:55:24;-1.50;99.90
6375;DHT22;35400;45.472;-122.822;2023-03-01T10:58:16;-1.50;99.90
6375;DHT22;35400;45.472;-122.822;2023-03-01T11:00:54;-1.60;99.90
6375;DHT22;35400;45.472;-122.822;2023-03-01T11:03:32;-1.60;99.90
6375;DHT22;35400;45.472;-122.822;2023-03-01T11:08:47;-1.60;99.90
6375;DHT22;35400;45.472;-122.822;2023-03-01T11:11:32;-1.60;99.90
6375;DHT22;35400;45.472;-122.822;2023-03-01T11:16:34;-1.60;99.90
6375;DHT22;35400;45.472;-122.822;2023-03-01T11:24:36;-1.70;99.90
6375;DHT22;35400;45.472;-122.822;2023-03-01T11:27:18;-1.70;99.90
6375;DHT22;35400;45.472;-122.822;2023-03-01T11:29:57;-1.70;99.90
6375;DHT22;35400;45.472;-122.822;2023-03-01T11:32:29;-1.80;99.90
6375;DHT22;35400;45.472;-122.822;2023-03-01T11:35:03;-1.80;99.90
6375;DHT22;35400;45.472;-122.822;2023-03-01T11:37:50;-1.80;99.90
6375;DHT22;35400;45.472;-122.822;2023-03-01T11:40:49;-1.80;99.90
6375;DHT22;35400;45.472;-122.822;2023-03-01T11:43:36;-1.80;99.90
6375;DHT22;35400;45.472;-122.822;2023-03-01T11:46:36;-1.80;99.90
6375;DHT22;35400;45.472;-122.822;2023-03-01T11:49:37;-1.90;99.90
6375;DHT22;35400;45.472;-122.822;2023-03-01T12:06:28;-1.80;99.90
6375;DHT22;35400;45.472;-122.822;2023-03-01T12:09:31;-1.80;99.90
6375;DHT22;35400;45.472;-122.822;2023-03-01T12:20:07;-1.70;99.90
6375;DHT22;35400;45.472;-122.822;2023-03-01T12:31:08;-1.50;99.90
6375;DHT22;35400;45.472;-122.822;2023-03-01T12:39:02;-1.40;99.90
6375;DHT22;35400;45.472;-122.822;2023-03-01T12:41:46;-1.40;99.90
6375;DHT22;35400;45.472;-122.822;2023-03-01T12:47:18;-1.30;99.90
6375;DHT22;35400;45.472;-122.822;2023-03-01T12:50:00;-1.30;99.90
6375;DHT22;35400;45.472;-122.822;2023-03-01T12:53:00;-1.30;99.90
6375;DHT22;35400;45.472;-122.822;2023-03-01T12:55:35;-1.30;99.90
6375;DHT22;35400;45.472;-122.822;2023-03-01T12:58:22;-1.30;99.90
6375;DHT22;35400;45.472;-122.822;2023-03-01T13:03:59;-1.20;99.90
6375;DHT22;35400;45.472;-122.822;2023-03-01T13:06:41;-1.20;99.90
6375;DHT22;35400;45.472;-122.822;2023-03-01T13:11:45;-1.20;99.90
6375;DHT22;35400;45.472;-122.822;2023-03-01T13:16:52;-1.10;99.90
6375;DHT22;35400;45.472;-122.822;2023-03-01T13:19:21;-1.10;99.90
6375;DHT22;35400;45.472;-122.822;2023-03-01T13:21:50;-1.10;99.90
6375;DHT22;35400;45.472;-122.822;2023-03-01T13:24:29;-1.10;99.90
6375;DHT22;35400;45.472;-122.822;2023-03-01T13:32:29;-1.00;99.90
6375;DHT22;35400;45.472;-122.822;2023-03-01T13:35:02;-1.00;99.90
6375;DHT22;35400;45.472;-122.822;2023-03-01T13:37:37;-0.90;99.90
6375;DHT22;35400;45.472;-122.822;2023-03-01T13:42:53;-0.90;99.90
6375;DHT22;35400;45.472;-122.822;2023-03-01T13:47:58;-0.80;99.90
6375;DHT22;35400;45.472;-122.822;2023-03-01T13:50:28;-0.80;99.90
6375;DHT22;35400;45.472;-122.822;2023-03-01T13:52:59;-0.80;99.90
6375;DHT22;35400;45.472;-122.822;2023-03-01T13:55:40;-0.70;99.90
6375;DHT22;35400;45.472;-122.822;2023-03-01T13:58:22;-0.70;99.90
6375;DHT22;35400;45.472;-122.822;2023-03-01T14:01:05;-0.70;99.90
6375;DHT22;35400;45.472;-122.822;2023-03-01T14:03:39;-0.70;99.90
6375;DHT22;35400;45.472;-122.822;2023-03-01T14:06:14;-0.60;99.90
6375;DHT22;35400;45.472;-122.822;2023-03-01T14:08:43;-0.60;99.90
6375;DHT22;35400;45.472;-122.822;2023-03-01T14:19:48;-0.50;99.90
6375;DHT22;35400;45.472;-122.822;2023-03-01T14:22:23;-0.50;99.90
6375;DHT22;35400;45.472;-122.822;2023-03-01T14:25:02;-0.50;99.90
6375;DHT22;35400;45.472;-122.822;2023-03-01T14:27:42;-0.50;99.90
6375;DHT22;35400;45.472;-122.822;2023-03-01T14:30:35;-0.50;99.90
6375;DHT22;35400;45.472;-122.822;2023-03-01T14:33:03;-0.50;99.90
6375;DHT22;35400;45.472;-122.822;2023-03-01T14:35:33;-0.50;99.90
6375;DHT22;35400;45.472;-122.822;2023-03-01T14:38:00;-0.50;99.90
6375;DHT22;35400;45.472;-122.822;2023-03-01T14:40:33;-0.60;99.90
6375;DHT22;35400;45.472;-122.822;2023-03-01T14:43:08;-0.60;99.90
6375;DHT22;35400;45.472;-122.822;2023-03-01T14:45:36;-0.60;99.90
6375;DHT22;35400;45.472;-122.822;2023-03-01T14:48:04;-0.60;99.90
6375;DHT22;35400;45.472;-122.822;2023-03-01T14:50:34;-0.60;99.90
6375;DHT22;35400;45.472;-122.822;2023-03-01T14:53:03;-0.70;99.90
6375;DHT22;35400;45.472;-122.822;2023-03-01T14:55:43;-0.70;99.90
6375;DHT22;35400;45.472;-122.822;2023-03-01T14:58:18;-0.70;99.90
6375;DHT22;35400;45.472;-122.822;2023-03-01T15:00:58;-0.70;99.90
6375;DHT22;35400;45.472;-122.822;2023-03-01T15:03:35;-0.70;99.90
6375;DHT22;35400;45.472;-122.822;2023-03-01T15:06:08;-0.70;99.90
6375;DHT22;35400;45.472;-122.822;2023-03-01T15:08:36;-0.70;99.90
6375;DHT22;35400;45.472;-122.822;2023-03-01T15:11:23;-0.70;99.90
6375;DHT22;35400;45.472;-122.822;2023-03-01T15:13:51;-0.70;99.90
6375;DHT22;35400;45.472;-122.822;2023-03-01T15:16:19;-0.70;99.90
6375;DHT22;35400;45.472;-122.822;2023-03-01T15:18:50;-0.60;99.90
6375;DHT22;35400;45.472;-122.822;2023-03-01T15:21:18;-0.60;99.90
6375;DHT22;35400;45.472;-122.822;2023-03-01T15:23:59;-0.60;99.90
6375;DHT22;35400;45.472;-122.822;2023-03-01T15:26:42;-0.50;99.90
6375;DHT22;35400;45.472;-122.822;2023-03-01T15:29:18;-0.50;99.90
6375;DHT22;35400;45.472;-122.822;2023-03-01T15:32:20;-0.40;99.90
6375;DHT22;35400;45.472;-122.822;2023-03-01T15:34:50;-0.40;99.90
6375;DHT22;35400;45.472;-122.822;2023-03-01T15:37:46;-0.40;99.90
6375;DHT22;35400;45.472;-122.822;2023-03-01T15:40:27;-0.40;99.90
6375;DHT22;35400;45.472;-122.822;2023-03-01T15:43:01;-0.30;99.90
6375;DHT22;35400;45.472;-122.822;2023-03-01T15:45:31;-0.30;99.90
6375;DHT22;35400;45.472;-122.822;2023-03-01T15:48:05;-0.30;99.90
6375;DHT22;35400;45.472;-122.822;2023-03-01T15:50:41;-0.30;99.90
6375;DHT22;35400;45.472;-122.822;2023-03-01T15:53:13;-0.30;99.90
6375;DHT22;35400;45.472;-122.822;2023-03-01T15:55:41;-0.30;99.90
6375;DHT22;35400;45.472;-122.822;2023-03-01T15:58:20;-0.30;99.90
6375;DHT22;35400;45.472;-122.822;2023-03-01T16:00:49;-0.20;99.90
6375;DHT22;35400;45.472;-122.822;2023-03-01T16:03:18;-0.20;99.90
6375;DHT22;35400;45.472;-122.822;2023-03-01T16:05:48;-0.20;99.90
6375;DHT22;35400;45.472;-122.822;2023-03-01T16:08:17;-0.20;99.90
6375;DHT22;35400;45.472;-122.822;2023-03-01T16:10:45;-0.20;99.90
6375;DHT22;35400;45.472;-122.822;2023-03-01T16:13:13;-0.10;99.90
6375;DHT22;35400;45.472;-122.822;2023-03-01T16:15:40;-0.10;99.90
6375;DHT22;35400;45.472;-122.822;2023-03-01T16:18:07;-0.10;99.90
6375;DHT22;35400;45.472;-122.822;2023-03-01T16:20:36;-0.10;99.90
6375;DHT22;35400;45.472;-122.822;2023-03-01T16:23:06;-0.10;99.90
6375;DHT22;35400;45.472;-122.822;2023-03-01T16:25:34;0.00;99.90
6375;DHT22;35400;45.472;-122.822;2023-03-01T16:28:01;0.00;99.90
6375;DHT22;35400;45.472;-122.822;2023-03-01T16:30:31;0.10;99.90
6375;DHT22;35400;45.472;-122.822;2023-03-01T16:32:58;0.20;99.90
6375;DHT22;35400;45.472;-122.822;2023-03-01T16:35:24;0.20;99.90
6375;DHT22;35400;45.472;-122.822;2023-03-01T16:37:51;0.30;99.90
6375;DHT22;35400;45.472;-122.822;2023-03-01T16:40:26;0.30;99.90
6375;DHT22;35400;45.472;-122.822;2023-03-01T16:42:54;0.40;99.90
6375;DHT22;35400;45.472;-122.822;2023-03-01T16:45:28;0.50;99.90
6375;DHT22;35400;45.472;-122.822;2023-03-01T16:47:59;0.50;99.90
6375;DHT22;35400;45.472;-122.822;2023-03-01T16:50:25;0.60;99.90
6375;DHT22;35400;45.472;-122.822;2023-03-01T16:52:52;0.70;99.90
6375;DHT22;35400;45.472;-122.822;2023-03-01T16:55:19;0.70;99.90
6375;DHT22;35400;45.472;-122.822;2023-03-01T16:57:46;0.80;99.90
6375;DHT22;35400;45.472;-122.822;2023-03-01T17:00:13;0.90;99.90
6375;DHT22;35400;45.472;-122.822;2023-03-01T17:02:41;1.10;99.90
6375;DHT22;35400;45.472;-122.822;2023-03-01T17:05:08;1.30;99.90
6375;DHT22;35400;45.472;-122.822;2023-03-01T17:07:37;1.50;99.90
6375;DHT22;35400;45.472;-122.822;2023-03-01T17:10:06;1.60;99.90
6375;DHT22;35400;45.472;-122.822;2023-03-01T17:12:34;1.80;99.90
6375;DHT22;35400;45.472;-122.822;2023-03-01T17:15:01;1.90;99.90